Howard, South Dakota
Current Conditions -  °F | °C
As of 12:35 PM on Friday 31 Oct 2014 (Local Time) from KMDS Reporting Station
Clear Clear  
Wind Chill: 26°   Ceiling: Unl
Heat Index: 32°   Visibility: 10mi
Dew Point: 18°   Wind: 7mph
Humidity: 55%   Direction: 120°ESE
Pressure: 30.55"   Gusts: NA
Location:  44.01°N, 97.53°W
Report Text: KMDS 311735Z AUTO 12006KT 10SM CLR 00/M08 A3055 RMK AO2
Loading
Personal Weather Stations






























Interactive Weather Map
Tropical Storm Tracking
New forecast layout! Learn more

10-Day Weather Forecast

Advertisements
Track Severe Weather on mobile